createdAt,value
2019-04-23T00:00:15.607Z,14.47
2019-04-23T00:01:25.531Z,14.07
2019-04-23T00:02:16.961Z,14.00
2019-04-23T00:02:53.493Z,12.07
2019-04-23T00:03:40.244Z,13.00
2019-04-23T00:04:18.115Z,12.93
2019-04-23T00:05:01.820Z,12.93
2019-04-23T00:05:51.452Z,13.17
2019-04-23T00:07:07.392Z,13.40
2019-04-23T00:08:28.552Z,13.63
2019-04-23T00:09:12.563Z,13.93
2019-04-23T00:09:46.962Z,13.93
2019-04-23T00:11:15.632Z,13.90
2019-04-23T00:11:47.652Z,13.47
2019-04-23T00:12:38.089Z,15.40
2019-04-23T00:13:05.685Z,13.60
2019-04-23T00:14:29.948Z,13.73
2019-04-23T00:15:58.676Z,13.40
2019-04-23T00:16:49.934Z,13.07
2019-04-23T00:17:28.382Z,13.80
2019-04-23T00:17:55.793Z,14.57
2019-04-23T00:19:16.918Z,13.73
2019-04-23T00:19:55.247Z,14.60
2019-04-23T00:20:36.162Z,15.23
2019-04-23T00:21:38.072Z,14.50
2019-04-23T00:22:20.640Z,13.43
2019-04-23T00:23:09.216Z,13.23
2019-04-23T00:23:53.095Z,14.57
2019-04-23T00:25:12.169Z,13.00
2019-04-23T00:26:32.720Z,13.63
2019-04-23T00:27:20.617Z,13.60
2019-04-23T00:27:50.302Z,13.80
2019-04-23T00:28:26.698Z,13.63
2019-04-23T00:29:13.474Z,12.00
2019-04-23T00:29:53.116Z,13.07
2019-04-23T00:30:36.222Z,12.77
2019-04-23T00:31:13.379Z,13.20
2019-04-23T00:31:56.157Z,12.87
2019-04-23T00:32:22.471Z,14.20
2019-04-23T00:33:12.281Z,12.37
2019-04-23T00:33:44.837Z,13.60
2019-04-23T00:34:36.168Z,14.30
2019-04-23T00:35:07.596Z,13.90
2019-04-23T00:35:50.392Z,12.70
2019-04-23T00:36:32.154Z,12.10
2019-04-23T00:37:18.698Z,12.27
2019-04-23T00:37:49.671Z,12.67
2019-04-23T00:38:33.658Z,13.60
2019-04-23T00:39:11.740Z,12.63
2019-04-23T00:41:20.819Z,11.83
2019-04-23T00:41:55.334Z,13.87
2019-04-23T00:42:38.625Z,12.93
2019-04-23T00:43:15.084Z,12.33
2019-04-23T00:43:54.844Z,13.43
2019-04-23T00:44:41.449Z,11.67
2019-04-23T00:45:16.907Z,11.43
2019-04-23T00:45:55.047Z,12.10
2019-04-23T00:46:35.038Z,11.10
2019-04-23T00:47:23.541Z,12.63
2019-04-23T00:47:54.708Z,11.40
2019-04-23T00:49:21.210Z,11.13
2019-04-23T00:50:06.385Z,11.23
2019-04-23T00:50:44.942Z,11.50
2019-04-23T00:51:18.565Z,11.40
2019-04-23T00:52:02.031Z,11.20
2019-04-23T00:52:44.189Z,11.00
2019-04-23T00:53:22.117Z,11.90
2019-04-23T00:54:05.944Z,11.10
2019-04-23T00:54:49.123Z,12.20
2019-04-23T00:55:26.502Z,11.63
2019-04-23T00:56:23.614Z,11.20
2019-04-23T00:56:50.835Z,11.07
2019-04-23T00:57:29.013Z,12.20
2019-04-23T00:58:15.775Z,12.33
2019-04-23T00:58:51.157Z,11.87
2019-04-23T00:59:39.422Z,11.47
2019-04-23T01:01:41.291Z,11.63
2019-04-23T01:02:08.779Z,12.10
2019-04-23T01:02:55.849Z,12.23
2019-04-23T01:03:27.120Z,12.07
2019-04-23T01:04:11.817Z,12.20
2019-04-23T01:05:01.623Z,11.90
2019-04-23T01:05:37.726Z,13.40
2019-04-23T01:06:24.214Z,13.20
2019-04-23T01:07:05.638Z,13.00
2019-04-23T01:07:44.478Z,15.03
2019-04-23T01:09:03.868Z,13.37
2019-04-23T01:09:56.138Z,13.17
2019-04-23T01:10:34.568Z,13.40
2019-04-23T01:11:16.779Z,12.63
2019-04-23T01:12:02.403Z,14.50
2019-04-23T01:12:37.812Z,15.00
2019-04-23T01:13:14.700Z,15.17
2019-04-23T01:14:34.665Z,15.50
2019-04-23T01:15:24.209Z,14.87
2019-04-23T01:16:04.493Z,14.17
2019-04-23T01:16:37.378Z,14.50
2019-04-23T01:17:30.226Z,14.70
2019-04-23T01:18:23.376Z,16.13
2019-04-23T01:18:51.350Z,15.60
2019-04-23T01:19:48.625Z,14.87
2019-04-23T01:20:24.624Z,14.90
2019-04-23T01:20:54.053Z,15.33
2019-04-23T01:21:32.622Z,16.13
2019-04-23T01:22:12.577Z,15.27
2019-04-23T01:22:50.962Z,14.47
2019-04-23T01:23:45.192Z,15.77
2019-04-23T01:24:31.282Z,15.20
2019-04-23T01:25:27.555Z,15.80
2019-04-23T01:26:10.048Z,14.57
2019-04-23T01:27:33.937Z,15.77
2019-04-23T01:28:03.515Z,16.00
2019-04-23T01:29:30.534Z,15.20
2019-04-23T01:30:52.747Z,14.63
2019-04-23T01:31:58.656Z,14.47
2019-04-23T01:32:44.089Z,14.17
2019-04-23T01:33:33.063Z,15.80
2019-04-23T01:34:06.137Z,13.33
2019-04-23T01:34:59.091Z,12.73
2019-04-23T01:35:36.412Z,15.90
2019-04-23T01:36:33.025Z,14.57
2019-04-23T01:37:16.001Z,14.13
2019-04-23T01:38:31.459Z,15.47
2019-04-23T01:39:45.520Z,14.43
2019-04-23T01:40:31.957Z,14.83
2019-04-23T01:41:09.768Z,13.03
2019-04-23T01:42:35.709Z,14.20
2019-04-23T01:43:09.234Z,15.10
2019-04-23T01:44:08.729Z,14.93
2019-04-23T01:44:38.757Z,14.10
2019-04-23T01:45:26.905Z,14.37
2019-04-23T01:45:50.010Z,14.60
2019-04-23T01:46:37.296Z,14.83
2019-04-23T01:47:19.858Z,15.17
2019-04-23T01:47:54.802Z,14.00
2019-04-23T01:48:34.241Z,15.53
2019-04-23T01:49:14.842Z,15.93
2019-04-23T01:50:37.748Z,14.70
2019-04-23T01:51:08.139Z,14.97
2019-04-23T01:52:04.792Z,16.30
2019-04-23T01:52:39.395Z,14.50
2019-04-23T01:53:49.672Z,12.90
2019-04-23T01:54:39.396Z,15.50
2019-04-23T01:55:21.175Z,15.00
2019-04-23T01:55:59.194Z,14.50
2019-04-23T01:56:36.883Z,15.10
2019-04-23T01:57:21.160Z,14.50
2019-04-23T01:58:18.986Z,14.67
2019-04-23T01:58:53.585Z,14.07
2019-04-23T01:59:18.028Z,15.30
2019-04-23T02:00:03.322Z,14.40
2019-04-23T02:01:30.035Z,18.77
2019-04-23T02:02:08.339Z,15.43
2019-04-23T02:03:26.672Z,14.20
2019-04-23T02:04:10.040Z,12.60
2019-04-23T02:04:59.263Z,14.40
2019-04-23T02:05:29.105Z,15.10
2019-04-23T02:06:21.975Z,14.27
2019-04-23T02:06:53.400Z,12.00
2019-04-23T02:07:35.674Z,13.60
2019-04-23T02:08:07.824Z,13.60
2019-04-23T02:09:42.202Z,12.70
2019-04-23T02:10:41.554Z,15.30
2019-04-23T02:11:05.363Z,12.30
2019-04-23T02:11:42.159Z,14.17
2019-04-23T02:12:23.808Z,14.60
2019-04-23T02:13:03.169Z,13.33
2019-04-23T02:15:10.270Z,14.63
2019-04-23T02:15:46.422Z,14.13
2019-04-23T02:16:32.618Z,15.23
2019-04-23T02:17:10.247Z,15.50
2019-04-23T02:17:53.245Z,14.70
2019-04-23T02:18:33.886Z,13.30
2019-04-23T02:19:51.333Z,14.00
2019-04-23T02:20:38.837Z,15.33
2019-04-23T02:21:10.752Z,14.40
2019-04-23T02:22:06.865Z,15.07
2019-04-23T02:23:16.448Z,15.10
2019-04-23T02:23:50.773Z,13.50
2019-04-23T02:24:39.599Z,14.67
2019-04-23T02:25:35.758Z,14.77
2019-04-23T02:26:07.858Z,13.90
2019-04-23T02:26:43.637Z,14.80
2019-04-23T02:27:30.048Z,16.10
2019-04-23T02:29:43.630Z,15.60
2019-04-23T02:30:31.191Z,15.00
2019-04-23T02:31:53.005Z,13.60
2019-04-23T02:33:17.557Z,14.53
2019-04-23T02:33:49.981Z,14.80
2019-04-23T02:35:20.773Z,14.40
2019-04-23T02:36:32.650Z,13.27
2019-04-23T02:37:16.039Z,13.20
2019-04-23T02:38:00.659Z,13.80
2019-04-23T02:38:45.602Z,14.70
2019-04-23T02:39:31.192Z,13.27
2019-04-23T02:40:08.571Z,13.40
2019-04-23T02:42:12.343Z,16.20
2019-04-23T02:44:41.220Z,12.10
2019-04-23T02:45:16.003Z,14.27
2019-04-23T02:46:53.957Z,15.67
2019-04-23T02:48:56.482Z,13.07
2019-04-23T02:49:44.185Z,15.80
2019-04-23T02:50:33.020Z,15.97
2019-04-23T02:50:54.086Z,14.43
2019-04-23T02:51:48.083Z,13.93
2019-04-23T02:52:16.135Z,14.47
2019-04-23T02:53:01.293Z,14.57
2019-04-23T02:53:44.316Z,16.13
2019-04-23T02:54:26.734Z,15.00
2019-04-23T02:55:09.015Z,14.83
2019-04-23T02:55:43.702Z,13.63
2019-04-23T02:56:30.892Z,14.93
2019-04-23T02:58:28.277Z,15.00
2019-04-23T02:59:42.259Z,13.80
2019-04-23T03:00:39.645Z,13.33
2019-04-23T03:02:07.714Z,14.60
2019-04-23T03:02:59.143Z,13.03
2019-04-23T03:03:27.954Z,14.00
2019-04-23T03:04:44.178Z,14.33
2019-04-23T03:05:26.337Z,14.40
2019-04-23T03:06:52.214Z,14.83
2019-04-23T03:08:42.710Z,13.67
2019-04-23T03:09:23.294Z,13.83
2019-04-23T03:10:00.396Z,14.03
2019-04-23T03:10:57.064Z,13.63
2019-04-23T03:11:24.976Z,14.87
2019-04-23T03:12:08.206Z,14.60
2019-04-23T03:12:46.875Z,13.70
2019-04-23T03:13:44.582Z,15.10
2019-04-23T03:14:07.541Z,15.13
2019-04-23T03:15:50.174Z,16.10
2019-04-23T03:19:02.242Z,14.17
2019-04-23T03:19:59.071Z,13.07
2019-04-23T03:20:59.169Z,14.30
2019-04-23T03:21:42.650Z,13.47
2019-04-23T03:22:35.564Z,15.33
2019-04-23T03:24:36.266Z,14.47
2019-04-23T03:27:11.035Z,13.80
2019-04-23T03:28:23.243Z,13.80
2019-04-23T03:29:05.216Z,13.53
2019-04-23T03:29:49.470Z,14.03
2019-04-23T03:30:26.674Z,14.00
2019-04-23T03:36:45.103Z,15.30
2019-04-23T03:37:19.876Z,15.90
2019-04-23T03:37:56.293Z,14.17
2019-04-23T03:38:45.773Z,15.20
2019-04-23T03:39:11.258Z,16.10
2019-04-23T03:40:27.696Z,15.57
2019-04-23T03:41:55.633Z,15.07
2019-04-23T03:43:25.129Z,15.47
2019-04-23T03:43:46.480Z,15.97
2019-04-23T03:44:45.305Z,14.73
2019-04-23T03:45:37.011Z,14.53
2019-04-23T03:48:00.780Z,14.93
2019-04-23T03:48:43.554Z,14.93
2019-04-23T03:49:12.921Z,13.10
2019-04-23T03:50:43.570Z,14.10
2019-04-23T03:53:32.955Z,13.47
2019-04-23T03:57:24.495Z,14.40
2019-04-23T03:58:12.193Z,15.30
2019-04-23T03:58:51.331Z,14.37
2019-04-23T03:59:37.043Z,13.50
2019-04-23T04:00:47.358Z,14.00
2019-04-23T04:02:20.840Z,15.00
2019-04-23T04:03:10.760Z,14.77
2019-04-23T04:03:58.919Z,14.90
2019-04-23T04:04:44.627Z,15.50
2019-04-23T04:08:58.463Z,15.60
2019-04-23T04:09:38.757Z,15.10
2019-04-23T04:10:05.400Z,15.10
2019-04-23T04:11:02.840Z,15.90
2019-04-23T04:11:27.336Z,14.50
2019-04-23T04:12:21.732Z,14.30
2019-04-23T04:12:56.756Z,13.37
2019-04-23T04:13:55.808Z,15.83
2019-04-23T04:14:32.062Z,15.47
2019-04-23T04:15:33.278Z,16.07
2019-04-23T04:15:55.415Z,15.20
2019-04-23T04:17:12.380Z,16.07
2019-04-23T04:17:52.265Z,14.27
2019-04-23T04:19:16.564Z,14.57
2019-04-23T04:19:19.336Z,15.63
2019-04-23T04:20:02.398Z,16.50
2019-04-23T04:21:16.198Z,15.73
2019-04-23T04:22:49.763Z,15.53
2019-04-23T04:24:03.305Z,16.57
2019-04-23T04:25:14.522Z,16.77
2019-04-23T04:28:12.104Z,15.97
2019-04-23T04:28:44.532Z,15.20
2019-04-23T04:29:54.929Z,15.40
2019-04-23T04:30:40.935Z,16.03
2019-04-23T04:32:11.906Z,15.73
2019-04-23T04:33:07.496Z,16.80
2019-04-23T04:34:11.252Z,16.60
2019-04-23T04:35:11.186Z,15.53
2019-04-23T04:35:22.395Z,16.53
2019-04-23T04:36:14.265Z,15.53
2019-04-23T04:37:19.961Z,16.93
2019-04-23T04:37:41.715Z,16.43
2019-04-23T04:38:24.973Z,16.30
2019-04-23T04:38:57.181Z,16.30
2019-04-23T04:39:34.359Z,16.10
2019-04-23T04:42:09.295Z,15.37
2019-04-23T04:42:25.240Z,17.70
2019-04-23T04:43:23.044Z,15.60
2019-04-23T04:44:17.045Z,18.03
2019-04-23T04:45:22.827Z,15.90
2019-04-23T04:46:45.622Z,18.40
2019-04-23T04:47:36.824Z,16.60
2019-04-23T04:48:09.239Z,17.37
2019-04-23T04:49:51.670Z,15.60
2019-04-23T04:50:24.082Z,15.50
2019-04-23T04:53:10.253Z,15.23
2019-04-23T04:55:05.253Z,16.97
2019-04-23T04:55:54.879Z,17.80
2019-04-23T04:57:12.789Z,16.00
2019-04-23T04:57:52.143Z,16.20
2019-04-23T04:58:20.930Z,15.60
2019-04-23T04:59:53.857Z,14.50
2019-04-23T05:00:34.736Z,16.27
2019-04-23T05:01:12.178Z,15.60
2019-04-23T05:02:39.148Z,16.00
2019-04-23T05:03:19.191Z,17.07
2019-04-23T05:03:35.834Z,17.90
2019-04-23T05:04:39.902Z,15.50
2019-04-23T05:05:48.460Z,15.80
2019-04-23T05:06:04.932Z,16.90
2019-04-23T05:07:24.255Z,15.87
2019-04-23T05:08:38.293Z,17.00
2019-04-23T05:09:40.589Z,17.87
2019-04-23T05:10:08.045Z,17.10
2019-04-23T05:10:44.103Z,16.37
2019-04-23T05:11:28.742Z,17.60
2019-04-23T05:12:19.241Z,18.07
2019-04-23T05:12:36.076Z,16.43
2019-04-23T05:14:08.167Z,15.60
2019-04-23T05:14:52.631Z,16.50
2019-04-23T05:15:17.145Z,14.50
2019-04-23T05:16:43.230Z,16.17
2019-04-23T05:17:55.432Z,14.90
2019-04-23T05:18:52.109Z,15.30
2019-04-23T05:19:29.380Z,15.50
2019-04-23T05:20:05.766Z,15.17
2019-04-23T05:20:54.328Z,14.77
2019-04-23T05:23:11.311Z,15.47
2019-04-23T05:24:21.820Z,14.33
2019-04-23T05:25:00.647Z,15.90
2019-04-23T05:25:47.904Z,14.70
2019-04-23T05:27:02.734Z,14.13
2019-04-23T05:27:53.553Z,14.03
2019-04-23T05:28:33.004Z,13.13
2019-04-23T05:29:04.841Z,14.20
2019-04-23T05:29:48.425Z,15.47
2019-04-23T05:31:12.262Z,14.27
2019-04-23T05:31:37.668Z,14.20
2019-04-23T05:32:25.142Z,14.37
2019-04-23T05:33:46.354Z,14.10
2019-04-23T05:34:27.338Z,14.30
2019-04-23T05:35:10.000Z,15.83
2019-04-23T05:36:09.161Z,16.47
2019-04-23T05:37:06.832Z,17.43
2019-04-23T05:37:59.022Z,14.97
2019-04-23T05:38:44.613Z,16.50
2019-04-23T05:39:15.542Z,15.37
2019-04-23T05:39:45.467Z,15.17
2019-04-23T05:40:37.208Z,16.47
2019-04-23T05:42:05.749Z,16.70
2019-04-23T05:42:32.025Z,15.07
2019-04-23T05:43:12.669Z,15.63
2019-04-23T05:44:03.642Z,17.00
2019-04-23T05:44:41.568Z,17.07
2019-04-23T05:45:23.567Z,16.60
2019-04-23T05:46:09.637Z,16.27
2019-04-23T05:47:29.086Z,18.33
2019-04-23T05:48:45.597Z,16.47
2019-04-23T05:49:26.155Z,17.00
2019-04-23T05:51:38.486Z,16.00
2019-04-23T05:52:09.636Z,16.20
2019-04-23T05:52:58.038Z,15.90
2019-04-23T05:53:39.767Z,15.53
2019-04-23T05:54:22.618Z,16.10
2019-04-23T05:55:01.592Z,16.10
2019-04-23T05:56:55.106Z,15.27
2019-04-23T05:57:40.484Z,15.87
2019-04-23T05:58:26.747Z,15.07
2019-04-23T05:59:18.069Z,16.07
2019-04-23T05:59:54.723Z,16.00
2019-04-23T06:02:11.544Z,13.30
2019-04-23T06:03:47.054Z,15.67
2019-04-23T06:04:24.859Z,13.50
2019-04-23T06:05:07.358Z,14.67
2019-04-23T06:05:46.554Z,13.47
2019-04-23T06:06:37.849Z,14.57
2019-04-23T06:08:03.542Z,12.80
2019-04-23T06:08:46.015Z,14.47
2019-04-23T06:09:28.336Z,14.10
2019-04-23T06:10:57.201Z,13.07
2019-04-23T06:11:45.741Z,14.10
2019-04-23T06:12:29.574Z,12.93
2019-04-23T06:13:09.950Z,14.73
2019-04-23T06:13:56.164Z,14.73
2019-04-23T06:14:32.769Z,12.40
2019-04-23T06:15:13.409Z,12.90
2019-04-23T06:15:53.095Z,14.60
2019-04-23T06:18:16.859Z,14.67
2019-04-23T06:19:36.825Z,14.90
2019-04-23T06:20:31.513Z,14.20
2019-04-23T06:22:56.100Z,16.67
2019-04-23T06:23:36.590Z,18.47
2019-04-23T06:24:22.210Z,19.30
2019-04-23T06:24:48.875Z,18.93
2019-04-23T06:26:33.338Z,18.17
2019-04-23T06:28:24.648Z,13.23
2019-04-23T06:29:05.011Z,11.10
2019-04-23T06:29:41.486Z,8.00
2019-04-23T06:30:26.604Z,5.30
2019-04-23T06:31:02.976Z,4.17
2019-04-23T06:32:25.948Z,4.20
2019-04-23T06:33:18.064Z,5.83
2019-04-23T06:33:48.039Z,4.97
2019-04-23T06:34:31.166Z,5.50
2019-04-23T06:35:52.731Z,5.30
2019-04-23T06:36:32.590Z,4.80
2019-04-23T06:37:24.486Z,5.43
2019-04-23T06:39:15.919Z,4.03
2019-04-23T06:40:43.586Z,4.70
2019-04-23T06:41:25.574Z,4.90
2019-04-23T06:42:03.556Z,4.67
2019-04-23T06:42:56.225Z,4.60
2019-04-23T06:43:47.103Z,4.03
2019-04-23T06:44:28.454Z,4.47
2019-04-23T06:45:10.445Z,4.30
2019-04-23T06:45:45.982Z,4.27
2019-04-23T06:46:29.105Z,4.30
2019-04-23T06:47:47.482Z,4.30
2019-04-23T06:48:21.813Z,4.30
2019-04-23T06:49:09.195Z,4.60
2019-04-23T06:49:50.923Z,5.33
2019-04-23T06:50:35.413Z,4.87
2019-04-23T06:51:20.162Z,4.37
2019-04-23T06:52:00.480Z,5.17
2019-04-23T06:52:41.138Z,5.03
2019-04-23T06:53:07.030Z,4.73
2019-04-23T06:53:51.299Z,4.23
2019-04-23T06:55:20.494Z,5.20
2019-04-23T06:56:42.813Z,5.10
2019-04-23T06:57:20.769Z,4.17
2019-04-23T06:58:08.369Z,4.07
2019-04-23T06:59:24.678Z,4.67
2019-04-23T07:00:02.689Z,4.40
2019-04-23T07:01:27.407Z,4.70
2019-04-23T07:02:11.971Z,5.17
2019-04-23T07:02:53.761Z,4.00
2019-04-23T07:03:38.590Z,4.80
2019-04-23T07:05:02.221Z,4.00
2019-04-23T07:06:02.995Z,4.30
2019-04-23T07:06:38.455Z,4.77
2019-04-23T07:08:44.362Z,4.40
2019-04-23T07:09:52.746Z,5.30
2019-04-23T07:10:40.296Z,5.20
2019-04-23T07:11:54.039Z,5.13
2019-04-23T07:12:44.817Z,5.17
2019-04-23T07:13:26.138Z,5.60
2019-04-23T07:13:57.619Z,5.67
2019-04-23T07:14:44.310Z,5.03
2019-04-23T07:15:33.750Z,5.50
2019-04-23T07:16:07.679Z,4.83
2019-04-23T07:16:59.214Z,5.37
2019-04-23T07:17:34.285Z,5.37
2019-04-23T07:18:10.030Z,5.00
2019-04-23T07:18:47.105Z,5.30
2019-04-23T07:19:33.563Z,5.17
2019-04-23T07:21:01.008Z,4.50
2019-04-23T07:21:37.282Z,5.40
2019-04-23T07:22:17.212Z,4.93
2019-04-23T07:23:04.959Z,5.90
2019-04-23T07:23:44.903Z,5.87
2019-04-23T07:24:15.214Z,5.80
2019-04-23T07:25:03.197Z,5.00
2019-04-23T07:25:42.432Z,6.00
2019-04-23T07:27:11.862Z,5.77
2019-04-23T07:27:54.357Z,5.83
2019-04-23T07:29:09.068Z,6.07
2019-04-23T07:29:58.496Z,6.57
2019-04-23T07:30:35.849Z,5.30
2019-04-23T07:31:26.611Z,6.17
2019-04-23T07:31:54.585Z,8.07
2019-04-23T07:32:31.180Z,6.20
2019-04-23T07:33:11.278Z,6.57
2019-04-23T07:33:59.548Z,6.10
2019-04-23T07:34:31.795Z,7.43
2019-04-23T07:35:25.735Z,6.53
2019-04-23T07:35:56.375Z,6.37
2019-04-23T07:36:41.056Z,6.80
2019-04-23T07:37:17.623Z,4.60
2019-04-23T07:38:08.825Z,6.97
2019-04-23T07:39:14.318Z,6.07
2019-04-23T07:40:22.951Z,6.80
2019-04-23T07:40:41.094Z,5.70
2019-04-23T07:41:59.411Z,6.77
2019-04-23T07:42:41.897Z,5.97
2019-04-23T07:43:22.521Z,5.90
2019-04-23T07:44:24.248Z,6.20
2019-04-23T07:45:09.433Z,6.90
2019-04-23T07:46:16.856Z,6.50
2019-04-23T07:47:11.286Z,5.90
2019-04-23T07:48:01.496Z,6.00
2019-04-23T07:48:29.245Z,7.10
2019-04-23T07:49:15.140Z,6.87
2019-04-23T07:50:12.837Z,7.20
2019-04-23T07:50:42.378Z,7.40
2019-04-23T07:51:19.554Z,5.67
2019-04-23T07:52:06.320Z,6.50
2019-04-23T07:52:51.348Z,6.87
2019-04-23T07:54:07.968Z,6.93
2019-04-23T07:55:34.434Z,6.47
2019-04-23T07:56:08.710Z,6.13
2019-04-23T07:56:54.266Z,6.03
2019-04-23T07:57:26.481Z,7.10
2019-04-23T07:58:27.419Z,7.40
2019-04-23T07:58:46.422Z,8.03
2019-04-23T07:59:37.177Z,8.47
2019-04-23T08:00:13.267Z,7.00
2019-04-23T08:01:32.052Z,7.33
2019-04-23T08:03:01.550Z,7.37
2019-04-23T08:03:48.146Z,7.60
2019-04-23T08:04:16.598Z,7.30
2019-04-23T08:05:03.568Z,6.83
2019-04-23T08:05:39.603Z,8.07
2019-04-23T08:06:12.055Z,7.80
2019-04-23T08:07:00.934Z,6.20
2019-04-23T08:07:42.641Z,6.97
2019-04-23T08:08:16.948Z,7.07
2019-04-23T08:09:01.576Z,6.67
2019-04-23T08:10:24.265Z,7.10
2019-04-23T08:12:13.897Z,7.40
2019-04-23T08:12:30.912Z,8.17
2019-04-23T08:13:15.605Z,8.43
2019-04-23T08:14:36.087Z,8.63
2019-04-23T08:15:14.895Z,8.10
2019-04-23T08:15:55.102Z,7.73
2019-04-23T08:17:12.466Z,9.47
2019-04-23T08:17:58.651Z,8.53
2019-04-23T08:18:41.469Z,10.13
2019-04-23T08:19:24.459Z,10.53
2019-04-23T08:20:09.509Z,9.50
2019-04-23T08:20:52.352Z,8.90
2019-04-23T08:22:14.159Z,10.10
2019-04-23T08:22:45.476Z,9.37
2019-04-23T08:23:56.942Z,9.40
2019-04-23T08:24:55.623Z,10.10
2019-04-23T08:26:07.237Z,9.80
2019-04-23T08:26:55.161Z,9.93
2019-04-23T08:27:51.510Z,8.87
2019-04-23T08:28:45.073Z,10.53
2019-04-23T08:29:15.339Z,9.87
2019-04-23T08:29:50.890Z,9.57
2019-04-23T08:30:37.773Z,9.27
2019-04-23T08:31:27.052Z,8.50
2019-04-23T08:32:35.118Z,8.73
2019-04-23T08:33:19.165Z,10.10
2019-04-23T08:34:15.169Z,10.73
2019-04-23T08:34:44.916Z,9.70
2019-04-23T08:35:21.249Z,9.23
2019-04-23T08:36:11.705Z,9.10
2019-04-23T08:36:48.268Z,9.43
2019-04-23T08:37:54.381Z,10.30
2019-04-23T08:38:51.249Z,10.73
2019-04-23T08:39:33.921Z,9.60
2019-04-23T08:40:08.174Z,11.00
2019-04-23T08:41:03.943Z,10.97
2019-04-23T08:42:33.160Z,11.50
2019-04-23T08:43:03.677Z,11.40
2019-04-23T08:43:42.877Z,9.70
2019-04-23T08:44:42.344Z,10.13
2019-04-23T08:45:22.320Z,9.63
2019-04-23T08:46:15.219Z,10.70
2019-04-23T08:47:51.282Z,9.83
2019-04-23T08:48:32.845Z,10.03
2019-04-23T08:49:22.087Z,10.77
2019-04-23T08:49:50.698Z,10.53
2019-04-23T08:50:38.451Z,10.07
2019-04-23T08:52:47.825Z,10.20
2019-04-23T08:54:08.751Z,10.53
2019-04-23T08:55:01.548Z,11.73
2019-04-23T08:56:12.350Z,11.93
2019-04-23T08:56:57.083Z,11.07
2019-04-23T08:57:29.050Z,10.67
2019-04-23T08:58:13.384Z,11.23
2019-04-23T08:58:49.028Z,10.57
2019-04-23T08:59:45.541Z,11.37
2019-04-23T09:00:17.802Z,12.03
2019-04-23T09:01:05.131Z,11.77
2019-04-23T09:01:48.040Z,10.70
2019-04-23T09:03:00.605Z,12.37
2019-04-23T09:03:34.839Z,10.93
2019-04-23T09:04:27.104Z,11.17
2019-04-23T09:05:11.118Z,12.10
2019-04-23T09:05:45.103Z,11.17
2019-04-23T09:06:24.494Z,12.00
2019-04-23T09:07:11.446Z,12.00
2019-04-23T09:07:58.096Z,12.50
2019-04-23T09:08:28.154Z,12.03
2019-04-23T09:09:18.092Z,12.07
2019-04-23T09:09:58.941Z,11.40
2019-04-23T09:10:35.822Z,11.23
2019-04-23T09:11:33.160Z,11.47
2019-04-23T09:12:36.655Z,13.37
2019-04-23T09:13:47.058Z,11.23
2019-04-23T09:13:57.448Z,11.30
2019-04-23T09:14:44.440Z,12.67
2019-04-23T09:16:05.159Z,12.50
2019-04-23T09:16:52.613Z,11.80
2019-04-23T09:17:26.656Z,11.90
2019-04-23T09:18:09.620Z,12.37
2019-04-23T09:18:45.952Z,11.83
2019-04-23T09:19:41.286Z,12.47
2019-04-23T09:20:18.476Z,11.70
2019-04-23T09:20:53.030Z,11.90
2019-04-23T09:21:28.731Z,11.13
2019-04-23T09:22:14.630Z,12.13
2019-04-23T09:22:51.893Z,13.10
2019-04-23T09:23:34.393Z,10.97
2019-04-23T09:24:09.610Z,11.20
2019-04-23T09:24:55.877Z,11.83
2019-04-23T09:25:34.654Z,12.33
2019-04-23T09:26:06.369Z,12.27
2019-04-23T09:26:55.478Z,12.03
2019-04-23T09:27:33.230Z,12.83
2019-04-23T09:28:15.987Z,13.10
2019-04-23T09:28:51.912Z,12.73
2019-04-23T09:29:42.440Z,12.30
2019-04-23T09:30:16.757Z,13.63
2019-04-23T09:30:54.227Z,11.57
2019-04-23T09:33:41.348Z,13.03
2019-04-23T09:34:38.163Z,11.97
2019-04-23T09:35:31.252Z,13.07
2019-04-23T09:36:22.307Z,12.40
2019-04-23T09:37:20.693Z,11.77
2019-04-23T09:38:11.715Z,12.90
2019-04-23T09:39:24.096Z,11.70
2019-04-23T09:40:18.894Z,11.90
2019-04-23T09:41:19.855Z,11.87
2019-04-23T09:41:42.369Z,13.47
2019-04-23T09:43:14.321Z,13.07
2019-04-23T09:43:40.543Z,11.90
2019-04-23T09:44:56.339Z,10.90
2019-04-23T09:45:30.000Z,13.10
2019-04-23T09:46:32.572Z,13.07
2019-04-23T09:47:38.560Z,11.00
2019-04-23T09:48:06.686Z,12.80
2019-04-23T09:49:00.165Z,13.40
2019-04-23T09:49:34.895Z,13.53
2019-04-23T09:50:18.828Z,12.70
2019-04-23T09:50:53.818Z,14.33
2019-04-23T09:52:21.954Z,13.60
2019-04-23T09:53:09.664Z,11.40
2019-04-23T09:53:58.812Z,13.03
2019-04-23T09:54:27.228Z,14.13
2019-04-23T09:55:06.086Z,12.80
2019-04-23T09:55:40.429Z,12.67
2019-04-23T09:56:22.290Z,12.80
2019-04-23T09:56:57.101Z,13.57
2019-04-23T09:57:52.247Z,13.23
2019-04-23T09:58:18.134Z,14.13
2019-04-23T09:59:09.066Z,12.73
2019-04-23T09:59:47.333Z,12.47
2019-04-23T10:00:33.017Z,12.47
2019-04-23T10:01:26.628Z,13.83
2019-04-23T10:02:04.206Z,9.90
2019-04-23T10:02:34.084Z,11.00
2019-04-23T10:03:16.436Z,11.77
2019-04-23T10:03:59.074Z,11.53
2019-04-23T10:04:39.856Z,9.80
2019-04-23T10:05:14.066Z,10.63
2019-04-23T10:05:54.816Z,12.40
2019-04-23T10:06:28.305Z,11.37
2019-04-23T10:07:20.760Z,11.17
2019-04-23T10:07:54.383Z,11.43
2019-04-23T10:08:33.395Z,10.20
2019-04-23T10:09:10.141Z,10.30
2019-04-23T10:09:48.358Z,12.87
2019-04-23T10:10:28.151Z,11.77
2019-04-23T10:11:07.507Z,12.50
2019-04-23T10:11:47.231Z,11.67
2019-04-23T10:12:26.369Z,10.90
2019-04-23T10:13:06.135Z,11.03
2019-04-23T10:13:45.070Z,11.23
2019-04-23T10:14:24.093Z,10.90
2019-04-23T10:15:09.597Z,9.30
2019-04-23T10:15:46.730Z,10.27
2019-04-23T10:16:26.328Z,10.03
2019-04-23T10:17:04.283Z,10.00
2019-04-23T10:17:42.448Z,10.23
2019-04-23T10:18:20.357Z,10.93
2019-04-23T10:19:00.671Z,10.30
2019-04-23T10:19:38.035Z,10.20
2019-04-23T10:20:16.535Z,10.33
2019-04-23T10:20:56.504Z,10.30
2019-04-23T10:21:35.573Z,12.00
2019-04-23T10:22:13.537Z,9.97
2019-04-23T10:22:54.649Z,11.90
2019-04-23T10:23:33.466Z,11.60
2019-04-23T10:24:12.874Z,10.63
2019-04-23T10:24:53.232Z,10.80
2019-04-23T10:25:31.961Z,9.90
2019-04-23T10:26:10.165Z,11.03
2019-04-23T10:26:52.165Z,11.97
2019-04-23T10:27:35.136Z,12.53
2019-04-23T10:28:31.808Z,11.10
2019-04-23T10:29:18.168Z,10.70
2019-04-23T10:29:59.596Z,12.03
2019-04-23T10:30:40.902Z,11.73
2019-04-23T10:31:20.918Z,10.97
2019-04-23T10:31:59.807Z,11.13
2019-04-23T10:32:40.045Z,11.17
2019-04-23T10:33:19.232Z,11.20
2019-04-23T10:34:06.518Z,12.03
2019-04-23T10:34:54.224Z,12.17
2019-04-23T10:35:35.284Z,10.67
2019-04-23T10:36:10.990Z,12.03
2019-04-23T10:36:44.898Z,11.17
2019-04-23T10:37:34.259Z,11.37
2019-04-23T10:38:10.019Z,11.83
2019-04-23T10:38:51.318Z,12.60
2019-04-23T10:39:30.333Z,11.93
2019-04-23T10:40:11.316Z,12.80
2019-04-23T10:40:50.238Z,10.70
2019-04-23T10:41:30.148Z,11.90
2019-04-23T10:42:09.852Z,12.00
2019-04-23T10:42:51.713Z,11.87
2019-04-23T10:43:31.543Z,10.33
2019-04-23T10:44:31.160Z,12.10
2019-04-23T10:45:57.614Z,11.17
2019-04-23T10:46:49.225Z,10.73
2019-04-23T10:47:53.923Z,13.33
2019-04-23T10:48:56.425Z,11.10
2019-04-23T10:50:00.269Z,9.90
2019-04-23T10:50:57.166Z,11.17
2019-04-23T10:52:02.619Z,10.83
2019-04-23T10:53:13.233Z,12.20
2019-04-23T10:54:03.361Z,11.40
2019-04-23T10:55:27.898Z,11.80
2019-04-23T10:55:55.332Z,11.90
2019-04-23T10:56:34.952Z,10.40
2019-04-23T10:57:03.979Z,11.60
2019-04-23T10:57:39.221Z,11.20
2019-04-23T10:59:10.309Z,12.40
2019-04-23T11:00:30.641Z,11.20
2019-04-23T11:01:14.933Z,10.50
2019-04-23T11:01:55.418Z,10.73
2019-04-23T11:03:32.059Z,11.03
2019-04-23T11:04:12.472Z,10.10
2019-04-23T11:04:49.164Z,11.83
2019-04-23T11:05:33.239Z,10.20
2019-04-23T11:05:59.009Z,10.83
2019-04-23T11:06:45.200Z,11.00
2019-04-23T11:07:28.685Z,13.17
2019-04-23T11:07:53.731Z,11.43
2019-04-23T11:08:35.643Z,11.57
2019-04-23T11:09:34.670Z,11.97
2019-04-23T11:10:05.722Z,11.53
2019-04-23T11:10:46.846Z,11.00
2019-04-23T11:11:27.673Z,12.00
2019-04-23T11:12:15.559Z,11.00
2019-04-23T11:13:10.790Z,12.17
2019-04-23T11:13:53.509Z,10.40
2019-04-23T11:14:34.094Z,12.10
2019-04-23T11:15:28.819Z,11.70
2019-04-23T11:16:25.486Z,11.27
2019-04-23T11:16:57.057Z,11.47
2019-04-23T11:17:25.949Z,11.27
2019-04-23T11:18:08.924Z,11.33
2019-04-23T11:19:32.300Z,11.10
2019-04-23T11:21:28.333Z,11.20
2019-04-23T11:22:28.166Z,10.77
2019-04-23T11:23:29.186Z,11.47
2019-04-23T11:24:26.480Z,11.40